createdAt,value
2022-09-23T03:38:43.127Z,6.93
2022-09-23T03:41:50.838Z,6.40
2022-09-23T03:45:01.400Z,6.50
2022-09-23T03:48:04.763Z,7.03
2022-09-23T03:51:24.003Z,6.40
2022-09-23T03:54:27.933Z,5.60
2022-09-23T03:57:30.300Z,5.55
2022-09-23T04:00:33.771Z,5.70
2022-09-23T04:03:36.440Z,5.97
2022-09-23T04:06:38.900Z,6.28
2022-09-23T04:09:41.578Z,6.40
2022-09-23T04:12:43.850Z,5.68
2022-09-23T04:15:49.982Z,5.62
2022-09-23T04:18:52.338Z,7.20
2022-09-23T04:21:55.040Z,5.72
2022-09-23T04:24:57.389Z,5.03
2022-09-23T04:28:00.105Z,6.97
2022-09-23T04:31:07.673Z,6.20
2022-09-23T04:34:10.820Z,7.20
2022-09-23T04:37:13.370Z,6.50
2022-09-23T04:40:16.013Z,6.97
2022-09-23T04:43:18.726Z,5.93
2022-09-23T04:46:21.468Z,7.05
2022-09-23T04:49:23.867Z,5.75
2022-09-23T04:52:27.303Z,7.97
2022-09-23T04:55:30.146Z,6.50
2022-09-23T04:58:34.168Z,7.93
2022-09-23T05:04:41.246Z,6.75
2022-09-23T05:07:43.687Z,7.37
2022-09-23T05:10:46.450Z,7.60
2022-09-23T05:13:50.780Z,7.35
2022-09-23T05:16:53.465Z,6.87
2022-09-23T05:19:57.993Z,5.40
2022-09-23T05:23:01.062Z,6.15
2022-09-23T05:26:07.063Z,7.53
2022-09-23T05:29:09.851Z,7.62
2022-09-23T05:32:12.195Z,7.37
2022-09-23T05:35:14.856Z,6.95
2022-09-23T05:38:17.680Z,5.50
2022-09-23T05:41:31.766Z,5.90
2022-09-23T05:44:39.118Z,6.55
2022-09-23T05:47:41.722Z,7.60
2022-09-23T05:50:51.805Z,8.80
2022-09-23T05:53:58.165Z,6.28
2022-09-23T05:57:04.191Z,7.20
2022-09-23T06:00:08.503Z,6.40
2022-09-23T06:03:15.928Z,6.50
2022-09-23T06:06:21.487Z,7.25
2022-09-23T06:09:23.792Z,7.00
2022-09-23T06:12:26.342Z,6.57
2022-09-23T06:15:28.757Z,7.12
2022-09-23T06:18:31.751Z,6.07
2022-09-23T06:21:36.320Z,7.18
2022-09-23T06:24:38.879Z,5.68
2022-09-23T06:27:41.218Z,6.18
2022-09-23T06:30:43.799Z,5.15
2022-09-23T06:33:46.234Z,5.53
2022-09-23T06:36:48.784Z,5.20
2022-09-23T06:39:51.082Z,5.45
2022-09-23T06:42:58.800Z,5.75
2022-09-23T06:46:04.051Z,5.50
2022-09-23T06:49:06.938Z,5.10
2022-09-23T06:52:09.731Z,4.82
2022-09-23T06:55:12.322Z,6.57
2022-09-23T06:58:15.041Z,4.50
2022-09-23T07:01:18.238Z,4.87
2022-09-23T07:04:21.051Z,4.22
2022-09-23T07:07:23.681Z,4.45
2022-09-23T07:10:28.018Z,5.85
2022-09-23T07:13:33.406Z,7.12
2022-09-23T07:16:35.944Z,7.32
2022-09-23T07:19:38.494Z,4.82
2022-09-23T07:22:40.821Z,4.43
2022-09-23T07:25:44.485Z,3.70
2022-09-23T07:28:47.057Z,3.75
2022-09-23T07:31:49.763Z,4.53
2022-09-23T07:34:53.262Z,4.10
2022-09-23T07:41:10.859Z,4.40
2022-09-23T07:44:13.459Z,4.22
2022-09-23T07:47:17.611Z,4.20
2022-09-23T07:50:20.201Z,3.80
2022-09-23T07:53:23.417Z,3.85
2022-09-23T07:56:29.338Z,4.05
2022-09-23T07:59:31.847Z,4.50
2022-09-23T08:02:34.519Z,4.68
2022-09-23T08:05:37.368Z,4.37
2022-09-23T08:08:43.705Z,3.75
2022-09-23T08:11:46.506Z,4.45
2022-09-23T08:14:48.730Z,4.32
2022-09-23T08:17:51.272Z,3.97
2022-09-23T08:20:53.737Z,5.00
2022-09-23T08:23:56.516Z,4.47
2022-09-23T08:26:59.016Z,4.07
2022-09-23T08:30:01.957Z,4.60
2022-09-23T08:33:04.816Z,4.40
2022-09-23T08:39:15.050Z,4.28
2022-09-23T08:42:25.365Z,4.35
2022-09-23T08:45:29.801Z,4.82
2022-09-23T08:48:38.487Z,5.43
2022-09-23T08:51:46.960Z,4.50
2022-09-23T08:54:54.529Z,4.00
2022-09-23T08:58:26.838Z,4.90
2022-09-23T09:01:44.569Z,4.35
2022-09-23T09:04:56.111Z,4.57
2022-09-23T09:08:01.058Z,5.43
2022-09-23T09:11:06.096Z,5.12
2022-09-23T09:14:19.963Z,4.87
2022-09-23T09:17:36.520Z,4.72
2022-09-23T09:21:14.582Z,4.90
2022-09-23T09:24:21.014Z,5.45
2022-09-23T09:27:24.202Z,5.00
2022-09-23T09:33:45.154Z,5.18
2022-09-23T09:37:21.287Z,5.00
2022-09-23T09:40:25.601Z,4.62
2022-09-23T09:43:27.970Z,5.60
2022-09-23T09:46:48.920Z,4.85
2022-09-23T09:49:58.973Z,4.80
2022-09-23T09:53:16.702Z,3.78
2022-09-23T09:56:31.021Z,4.70
2022-09-23T09:59:35.217Z,4.03
2022-09-23T10:02:39.984Z,4.57
2022-09-23T10:05:45.613Z,4.00
2022-09-23T10:09:08.104Z,4.40
2022-09-23T10:12:15.463Z,9.05
2022-09-23T10:15:34.882Z,4.50
2022-09-23T10:18:37.646Z,4.47
2022-09-23T10:21:42.198Z,3.97
2022-09-23T10:24:49.104Z,4.00
2022-09-23T10:27:51.408Z,4.20
2022-09-23T10:31:13.840Z,3.60
2022-09-23T10:34:36.530Z,4.07
2022-09-23T10:37:43.498Z,3.72
2022-09-23T10:41:04.650Z,3.67
2022-09-23T10:44:16.504Z,4.50
2022-09-23T10:47:43.063Z,3.80
2022-09-23T10:50:49.643Z,3.62
2022-09-23T10:54:10.284Z,3.80
2022-09-23T10:57:41.130Z,4.10
2022-09-23T11:00:55.867Z,4.68
2022-09-23T11:04:38.165Z,3.97
2022-09-23T11:07:52.018Z,3.95
2022-09-23T11:11:11.796Z,3.87
2022-09-23T11:14:41.487Z,4.43
2022-09-23T11:18:03.088Z,3.95
2022-09-23T11:21:38.254Z,4.03
2022-09-23T11:25:30.364Z,3.55
2022-09-23T11:28:48.289Z,3.50
2022-09-23T11:32:20.584Z,3.47
2022-09-23T11:35:55.171Z,3.40
2022-09-23T11:39:01.363Z,3.90
2022-09-23T11:42:12.265Z,3.92
2022-09-23T11:45:20.126Z,4.18
2022-09-23T11:48:28.976Z,4.25
2022-09-23T11:52:05.710Z,4.05
2022-09-23T11:55:22.702Z,3.70
2022-09-23T11:58:31.410Z,3.65
2022-09-23T12:01:43.102Z,3.37
2022-09-23T12:05:13.959Z,4.80
2022-09-23T12:08:32.812Z,3.67
2022-09-23T12:11:43.411Z,4.97
2022-09-23T12:14:59.352Z,3.90
2022-09-23T12:18:35.748Z,3.70
2022-09-23T12:22:01.709Z,3.92
2022-09-23T12:25:33.153Z,3.70
2022-09-23T12:28:40.836Z,3.78
2022-09-23T12:31:46.712Z,3.45
2022-09-23T12:34:51.983Z,3.95
2022-09-23T12:37:54.749Z,3.17
2022-09-23T12:40:57.266Z,4.00
2022-09-23T12:44:14.853Z,3.20
2022-09-23T12:47:28.759Z,3.33
2022-09-23T12:51:02.584Z,4.05
2022-09-23T12:54:04.812Z,3.12
2022-09-23T12:57:34.236Z,3.87
2022-09-23T13:00:36.669Z,4.05
2022-09-23T13:04:04.075Z,3.25
2022-09-23T13:07:08.834Z,3.87
2022-09-23T13:10:22.698Z,2.87
2022-09-23T13:13:31.624Z,2.92
2022-09-23T13:16:38.114Z,3.85
2022-09-23T13:19:45.174Z,3.47
2022-09-23T13:22:53.729Z,3.92
2022-09-23T13:25:59.267Z,3.58
2022-09-23T13:29:03.721Z,3.37
2022-09-23T13:32:15.123Z,3.20
2022-09-23T13:35:29.738Z,2.97
2022-09-23T13:38:33.955Z,3.25
2022-09-23T13:41:36.850Z,2.72
2022-09-23T13:44:40.750Z,2.58
2022-09-23T13:47:45.223Z,2.75
2022-09-23T13:50:50.682Z,2.78
2022-09-23T13:53:55.224Z,2.60
2022-09-23T13:56:58.115Z,3.40
2022-09-23T14:00:02.544Z,2.90
2022-09-23T14:03:21.222Z,3.45
2022-09-23T14:06:27.123Z,3.50
2022-09-23T14:09:30.485Z,2.67
2022-09-23T14:12:33.321Z,2.87
2022-09-23T14:15:37.037Z,3.22
2022-09-23T14:18:43.020Z,2.87
2022-09-23T14:21:51.252Z,2.47
2022-09-23T14:24:55.822Z,2.35
2022-09-23T14:28:00.461Z,2.45
2022-09-23T14:31:03.407Z,3.67
2022-09-23T14:34:06.162Z,3.10
2022-09-23T14:37:56.991Z,3.08
2022-09-23T14:41:15.669Z,2.87
2022-09-23T14:44:22.393Z,3.58
2022-09-23T14:47:25.269Z,2.78
2022-09-23T14:50:36.886Z,2.50
2022-09-23T14:53:46.306Z,2.60
2022-09-23T14:56:48.980Z,2.30
2022-09-23T15:00:09.159Z,2.83
2022-09-23T15:03:16.126Z,2.92
2022-09-23T15:06:19.799Z,2.22
2022-09-23T15:09:26.604Z,2.83
2022-09-23T15:12:30.067Z,2.58
2022-09-23T15:15:32.859Z,2.30
2022-09-23T15:18:37.830Z,2.30
2022-09-23T15:21:44.082Z,2.45
2022-09-23T15:24:46.716Z,1.80
2022-09-23T15:28:12.371Z,2.00
2022-09-23T15:31:20.245Z,2.37
2022-09-23T15:34:22.926Z,2.30
